sensor_id;sensor_type;location;lat;lon;timestamp;temperature;humidity
39099;DHT22;24844;52.380;7.018;2023-05-23T00:00:32;16.20;99.90
39099;DHT22;24844;52.380;7.018;2023-05-23T00:02:58;16.20;99.90
39099;DHT22;24844;52.380;7.018;2023-05-23T00:05:25;16.00;99.90
39099;DHT22;24844;52.380;7.018;2023-05-23T00:07:51;16.20;99.90
39099;DHT22;24844;52.380;7.018;2023-05-23T00:10:16;16.10;99.90
39099;DHT22;24844;52.380;7.018;2023-05-23T00:12:42;16.00;99.90
39099;DHT22;24844;52.380;7.018;2023-05-23T00:15:08;16.00;99.90
39099;DHT22;24844;52.380;7.018;2023-05-23T00:17:34;16.00;99.90
39099;DHT22;24844;52.380;7.018;2023-05-23T00:20:03;15.80;99.90
39099;DHT22;24844;52.380;7.018;2023-05-23T00:22:28;16.00;99.90
39099;DHT22;24844;52.380;7.018;2023-05-23T00:24:54;16.10;99.90
39099;DHT22;24844;52.380;7.018;2023-05-23T00:27:22;15.90;99.90
39099;DHT22;24844;52.380;7.018;2023-05-23T00:29:48;15.90;99.90
39099;DHT22;24844;52.380;7.018;2023-05-23T00:32:13;15.90;99.90
39099;DHT22;24844;52.380;7.018;2023-05-23T00:34:39;15.90;99.90
39099;DHT22;24844;52.380;7.018;2023-05-23T00:37:04;15.90;99.90
39099;DHT22;24844;52.380;7.018;2023-05-23T00:39:30;15.90;99.90
39099;DHT22;24844;52.380;7.018;2023-05-23T00:41:55;16.20;99.90
39099;DHT22;24844;52.380;7.018;2023-05-23T00:44:22;16.10;99.90
39099;DHT22;24844;52.380;7.018;2023-05-23T00:46:53;15.80;99.90
39099;DHT22;24844;52.380;7.018;2023-05-23T00:49:20;15.80;99.90
39099;DHT22;24844;52.380;7.018;2023-05-23T00:51:46;15.80;99.90
39099;DHT22;24844;52.380;7.018;2023-05-23T00:54:14;15.80;99.90
39099;DHT22;24844;52.380;7.018;2023-05-23T00:56:41;15.80;99.90
39099;DHT22;24844;52.380;7.018;2023-05-23T00:59:08;15.60;99.90
39099;DHT22;24844;52.380;7.018;2023-05-23T01:01:34;15.70;99.90
39099;DHT22;24844;52.380;7.018;2023-05-23T01:04:02;15.80;99.90
39099;DHT22;24844;52.380;7.018;2023-05-23T01:06:29;15.80;99.90
39099;DHT22;24844;52.380;7.018;2023-05-23T01:08:55;15.70;99.90
39099;DHT22;24844;52.380;7.018;2023-05-23T01:11:31;15.70;99.90
39099;DHT22;24844;52.380;7.018;2023-05-23T01:14:01;15.70;99.90
39099;DHT22;24844;52.380;7.018;2023-05-23T01:16:36;15.80;99.90
39099;DHT22;24844;52.380;7.018;2023-05-23T01:21:54;15.60;99.90
39099;DHT22;24844;52.380;7.018;2023-05-23T01:24:53;15.50;99.90
39099;DHT22;24844;52.380;7.018;2023-05-23T01:30:01;15.60;99.90
39099;DHT22;24844;52.380;7.018;2023-05-23T01:32:29;15.60;99.90
39099;DHT22;24844;52.380;7.018;2023-05-23T01:34:57;15.50;99.90
39099;DHT22;24844;52.380;7.018;2023-05-23T01:37:23;15.60;99.90
39099;DHT22;24844;52.380;7.018;2023-05-23T01:39:49;15.40;99.90
39099;DHT22;24844;52.380;7.018;2023-05-23T01:42:15;15.30;99.90
39099;DHT22;24844;52.380;7.018;2023-05-23T01:44:40;15.30;99.90
39099;DHT22;24844;52.380;7.018;2023-05-23T01:47:08;15.20;99.90
39099;DHT22;24844;52.380;7.018;2023-05-23T01:49:34;15.20;99.90
39099;DHT22;24844;52.380;7.018;2023-05-23T01:52:01;15.30;99.90
39099;DHT22;24844;52.380;7.018;2023-05-23T01:54:28;15.20;99.90
39099;DHT22;24844;52.380;7.018;2023-05-23T01:56:57;15.20;99.90
39099;DHT22;24844;52.380;7.018;2023-05-23T01:59:23;15.20;99.90
39099;DHT22;24844;52.380;7.018;2023-05-23T02:01:49;15.40;99.90
39099;DHT22;24844;52.380;7.018;2023-05-23T02:04:14;15.40;99.90
39099;DHT22;24844;52.380;7.018;2023-05-23T02:06:40;15.40;99.90
39099;DHT22;24844;52.380;7.018;2023-05-23T02:09:06;15.40;99.90
39099;DHT22;24844;52.380;7.018;2023-05-23T02:11:33;15.40;99.90
39099;DHT22;24844;52.380;7.018;2023-05-23T02:13:58;15.40;99.90
39099;DHT22;24844;52.380;7.018;2023-05-23T02:16:24;15.30;99.90
39099;DHT22;24844;52.380;7.018;2023-05-23T02:18:50;15.30;99.90
39099;DHT22;24844;52.380;7.018;2023-05-23T02:21:17;15.30;99.90
39099;DHT22;24844;52.380;7.018;2023-05-23T02:23:43;15.30;99.90
39099;DHT22;24844;52.380;7.018;2023-05-23T02:26:08;15.20;99.90
39099;DHT22;24844;52.380;7.018;2023-05-23T02:28:34;15.20;99.90
39099;DHT22;24844;52.380;7.018;2023-05-23T02:31:01;15.30;99.90
39099;DHT22;24844;52.380;7.018;2023-05-23T02:33:27;15.20;99.90
39099;DHT22;24844;52.380;7.018;2023-05-23T02:35:53;15.10;99.90
39099;DHT22;24844;52.380;7.018;2023-05-23T02:38:19;15.10;99.90
39099;DHT22;24844;52.380;7.018;2023-05-23T02:40:45;15.20;99.90
39099;DHT22;24844;52.380;7.018;2023-05-23T02:43:10;15.30;99.90
39099;DHT22;24844;52.380;7.018;2023-05-23T02:45:36;15.00;99.90
39099;DHT22;24844;52.380;7.018;2023-05-23T02:48:01;15.00;99.90
39099;DHT22;24844;52.380;7.018;2023-05-23T02:50:27;15.00;99.90
39099;DHT22;24844;52.380;7.018;2023-05-23T02:52:53;14.90;99.90
39099;DHT22;24844;52.380;7.018;2023-05-23T02:55:18;15.00;99.90
39099;DHT22;24844;52.380;7.018;2023-05-23T02:57:44;14.90;99.90
39099;DHT22;24844;52.380;7.018;2023-05-23T03:00:10;14.80;99.90
39099;DHT22;24844;52.380;7.018;2023-05-23T03:02:36;15.00;99.90
39099;DHT22;24844;52.380;7.018;2023-05-23T03:05:01;14.80;99.90
39099;DHT22;24844;52.380;7.018;2023-05-23T03:07:28;14.90;99.90
39099;DHT22;24844;52.380;7.018;2023-05-23T03:09:55;15.00;99.90
39099;DHT22;24844;52.380;7.018;2023-05-23T03:12:20;15.10;99.90
39099;DHT22;24844;52.380;7.018;2023-05-23T03:14:46;14.90;99.90
39099;DHT22;24844;52.380;7.018;2023-05-23T03:17:12;15.00;99.90
39099;DHT22;24844;52.380;7.018;2023-05-23T03:19:38;14.90;99.90
39099;DHT22;24844;52.380;7.018;2023-05-23T03:22:03;15.10;99.90
39099;DHT22;24844;52.380;7.018;2023-05-23T03:24:29;14.90;99.90
39099;DHT22;24844;52.380;7.018;2023-05-23T03:26:56;14.70;99.90
39099;DHT22;24844;52.380;7.018;2023-05-23T03:29:21;14.60;99.90
39099;DHT22;24844;52.380;7.018;2023-05-23T03:31:47;14.60;99.90
39099;DHT22;24844;52.380;7.018;2023-05-23T03:34:12;14.60;99.90
39099;DHT22;24844;52.380;7.018;2023-05-23T03:36:38;14.70;99.90
39099;DHT22;24844;52.380;7.018;2023-05-23T03:39:04;14.60;99.90
39099;DHT22;24844;52.380;7.018;2023-05-23T03:41:30;14.80;99.90
39099;DHT22;24844;52.380;7.018;2023-05-23T03:43:56;14.60;99.90
39099;DHT22;24844;52.380;7.018;2023-05-23T03:46:21;14.60;99.90
39099;DHT22;24844;52.380;7.018;2023-05-23T03:48:47;14.70;99.90
39099;DHT22;24844;52.380;7.018;2023-05-23T03:51:13;14.70;99.90
39099;DHT22;24844;52.380;7.018;2023-05-23T03:53:39;14.50;99.90
39099;DHT22;24844;52.380;7.018;2023-05-23T03:56:05;14.40;99.90
39099;DHT22;24844;52.380;7.018;2023-05-23T03:58:30;14.30;99.90
39099;DHT22;24844;52.380;7.018;2023-05-23T04:00:56;14.20;99.90
39099;DHT22;24844;52.380;7.018;2023-05-23T04:03:22;14.40;99.90
39099;DHT22;24844;52.380;7.018;2023-05-23T04:05:48;14.20;99.90
39099;DHT22;24844;52.380;7.018;2023-05-23T04:08:14;14.40;99.90
39099;DHT22;24844;52.380;7.018;2023-05-23T04:10:40;14.30;99.90
39099;DHT22;24844;52.380;7.018;2023-05-23T04:13:05;14.30;99.90
39099;DHT22;24844;52.380;7.018;2023-05-23T04:15:31;14.30;99.90
39099;DHT22;24844;52.380;7.018;2023-05-23T04:17:58;14.40;99.90
39099;DHT22;24844;52.380;7.018;2023-05-23T04:20:24;14.50;99.90
39099;DHT22;24844;52.380;7.018;2023-05-23T04:22:50;14.50;99.90
39099;DHT22;24844;52.380;7.018;2023-05-23T04:25:15;14.60;99.90
39099;DHT22;24844;52.380;7.018;2023-05-23T04:27:43;14.60;99.90
39099;DHT22;24844;52.380;7.018;2023-05-23T04:30:09;14.50;99.90
39099;DHT22;24844;52.380;7.018;2023-05-23T04:32:35;14.70;99.90
39099;DHT22;24844;52.380;7.018;2023-05-23T04:35:01;14.60;99.90
39099;DHT22;24844;52.380;7.018;2023-05-23T04:37:28;14.40;99.90
39099;DHT22;24844;52.380;7.018;2023-05-23T04:39:54;14.30;99.90
39099;DHT22;24844;52.380;7.018;2023-05-23T04:42:19;14.30;99.90
39099;DHT22;24844;52.380;7.018;2023-05-23T04:44:49;14.30;99.90
39099;DHT22;24844;52.380;7.018;2023-05-23T04:47:15;14.20;99.90
39099;DHT22;24844;52.380;7.018;2023-05-23T04:49:41;14.20;99.90
39099;DHT22;24844;52.380;7.018;2023-05-23T04:52:07;14.30;99.90
39099;DHT22;24844;52.380;7.018;2023-05-23T04:54:32;14.10;99.90
39099;DHT22;24844;52.380;7.018;2023-05-23T04:56:58;13.90;99.90
39099;DHT22;24844;52.380;7.018;2023-05-23T04:59:24;14.00;99.90
39099;DHT22;24844;52.380;7.018;2023-05-23T05:01:50;14.10;99.90
39099;DHT22;24844;52.380;7.018;2023-05-23T05:04:15;13.90;99.90
39099;DHT22;24844;52.380;7.018;2023-05-23T05:06:41;13.90;99.90
39099;DHT22;24844;52.380;7.018;2023-05-23T05:09:06;14.10;99.90
39099;DHT22;24844;52.380;7.018;2023-05-23T05:11:32;14.10;99.90
39099;DHT22;24844;52.380;7.018;2023-05-23T05:13:57;14.00;99.90
39099;DHT22;24844;52.380;7.018;2023-05-23T05:16:23;14.10;99.90
39099;DHT22;24844;52.380;7.018;2023-05-23T05:18:48;14.00;99.90
39099;DHT22;24844;52.380;7.018;2023-05-23T05:21:14;13.90;99.90
39099;DHT22;24844;52.380;7.018;2023-05-23T05:23:40;13.80;99.90
39099;DHT22;24844;52.380;7.018;2023-05-23T05:26:06;13.80;99.90
39099;DHT22;24844;52.380;7.018;2023-05-23T05:28:32;14.00;99.90
39099;DHT22;24844;52.380;7.018;2023-05-23T05:30:58;13.90;99.90
39099;DHT22;24844;52.380;7.018;2023-05-23T05:33:23;14.10;99.90
39099;DHT22;24844;52.380;7.018;2023-05-23T05:35:49;14.20;99.90
39099;DHT22;24844;52.380;7.018;2023-05-23T05:38:18;13.80;99.90
39099;DHT22;24844;52.380;7.018;2023-05-23T05:40:44;13.80;99.90
39099;DHT22;24844;52.380;7.018;2023-05-23T05:43:10;13.90;99.90
39099;DHT22;24844;52.380;7.018;2023-05-23T05:45:36;14.10;99.90
39099;DHT22;24844;52.380;7.018;2023-05-23T05:48:01;14.20;99.90
39099;DHT22;24844;52.380;7.018;2023-05-23T05:50:27;14.20;99.90
39099;DHT22;24844;52.380;7.018;2023-05-23T05:52:53;14.10;99.90
39099;DHT22;24844;52.380;7.018;2023-05-23T05:55:18;14.20;99.90
39099;DHT22;24844;52.380;7.018;2023-05-23T05:57:44;14.30;99.90
39099;DHT22;24844;52.380;7.018;2023-05-23T06:00:11;14.20;99.90
39099;DHT22;24844;52.380;7.018;2023-05-23T06:02:40;14.10;99.90
39099;DHT22;24844;52.380;7.018;2023-05-23T06:05:08;14.20;99.90
39099;DHT22;24844;52.380;7.018;2023-05-23T06:07:37;14.30;99.90
39099;DHT22;24844;52.380;7.018;2023-05-23T06:10:02;14.20;99.90
39099;DHT22;24844;52.380;7.018;2023-05-23T06:12:28;13.90;99.90
39099;DHT22;24844;52.380;7.018;2023-05-23T06:14:54;14.00;99.90
39099;DHT22;24844;52.380;7.018;2023-05-23T06:17:19;13.80;99.90
39099;DHT22;24844;52.380;7.018;2023-05-23T06:19:45;14.00;99.90
39099;DHT22;24844;52.380;7.018;2023-05-23T06:22:11;13.90;99.90
39099;DHT22;24844;52.380;7.018;2023-05-23T06:24:36;13.90;99.90
39099;DHT22;24844;52.380;7.018;2023-05-23T06:27:02;14.00;99.90
39099;DHT22;24844;52.380;7.018;2023-05-23T06:29:28;14.20;99.90
39099;DHT22;24844;52.380;7.018;2023-05-23T06:31:55;14.00;99.90
39099;DHT22;24844;52.380;7.018;2023-05-23T06:34:21;13.90;99.90
39099;DHT22;24844;52.380;7.018;2023-05-23T06:36:46;13.80;99.90
39099;DHT22;24844;52.380;7.018;2023-05-23T06:39:13;13.70;99.90
39099;DHT22;24844;52.380;7.018;2023-05-23T06:41:38;13.90;99.90
39099;DHT22;24844;52.380;7.018;2023-05-23T06:44:04;13.80;99.90
39099;DHT22;24844;52.380;7.018;2023-05-23T06:46:30;13.90;99.90
39099;DHT22;24844;52.380;7.018;2023-05-23T06:48:56;13.80;99.90
39099;DHT22;24844;52.380;7.018;2023-05-23T06:51:21;13.80;99.90
39099;DHT22;24844;52.380;7.018;2023-05-23T06:53:47;13.60;99.90
39099;DHT22;24844;52.380;7.018;2023-05-23T06:56:12;13.80;99.90
39099;DHT22;24844;52.380;7.018;2023-05-23T06:58:38;13.70;99.90
39099;DHT22;24844;52.380;7.018;2023-05-23T07:01:04;13.70;99.90
39099;DHT22;24844;52.380;7.018;2023-05-23T07:03:29;13.60;99.90
39099;DHT22;24844;52.380;7.018;2023-05-23T07:05:55;13.80;99.90
39099;DHT22;24844;52.380;7.018;2023-05-23T07:08:21;13.60;99.90
39099;DHT22;24844;52.380;7.018;2023-05-23T07:10:46;13.50;99.90
39099;DHT22;24844;52.380;7.018;2023-05-23T07:13:12;13.70;99.90
39099;DHT22;24844;52.380;7.018;2023-05-23T07:15:37;13.70;99.90
39099;DHT22;24844;52.380;7.018;2023-05-23T07:18:03;13.50;99.90
39099;DHT22;24844;52.380;7.018;2023-05-23T07:20:29;13.40;99.90
39099;DHT22;24844;52.380;7.018;2023-05-23T07:22:54;13.50;99.90
39099;DHT22;24844;52.380;7.018;2023-05-23T07:25:21;13.30;99.90
39099;DHT22;24844;52.380;7.018;2023-05-23T07:27:47;13.20;99.90
39099;DHT22;24844;52.380;7.018;2023-05-23T07:30:13;13.30;99.90
39099;DHT22;24844;52.380;7.018;2023-05-23T07:32:41;13.30;99.90
39099;DHT22;24844;52.380;7.018;2023-05-23T07:35:06;13.30;99.90
39099;DHT22;24844;52.380;7.018;2023-05-23T07:37:32;13.60;99.90
39099;DHT22;24844;52.380;7.018;2023-05-23T07:39:58;13.60;99.90
39099;DHT22;24844;52.380;7.018;2023-05-23T07:42:23;13.40;99.90
39099;DHT22;24844;52.380;7.018;2023-05-23T07:44:49;13.40;99.90
39099;DHT22;24844;52.380;7.018;2023-05-23T07:47:14;13.40;99.90
39099;DHT22;24844;52.380;7.018;2023-05-23T07:49:40;13.50;99.90
39099;DHT22;24844;52.380;7.018;2023-05-23T07:52:05;13.40;99.90
39099;DHT22;24844;52.380;7.018;2023-05-23T07:54:31;13.40;99.90
39099;DHT22;24844;52.380;7.018;2023-05-23T07:56:57;13.40;99.90
39099;DHT22;24844;52.380;7.018;2023-05-23T07:59:22;13.40;99.90
39099;DHT22;24844;52.380;7.018;2023-05-23T08:01:48;13.80;99.90
39099;DHT22;24844;52.380;7.018;2023-05-23T08:04:17;13.70;99.90
39099;DHT22;24844;52.380;7.018;2023-05-23T08:06:42;13.60;99.90
39099;DHT22;24844;52.380;7.018;2023-05-23T08:09:11;13.60;99.90
39099;DHT22;24844;52.380;7.018;2023-05-23T08:11:37;13.50;99.90
39099;DHT22;24844;52.380;7.018;2023-05-23T08:14:02;13.50;99.90
39099;DHT22;24844;52.380;7.018;2023-05-23T08:16:28;13.90;99.90
39099;DHT22;24844;52.380;7.018;2023-05-23T08:18:53;14.10;99.90
39099;DHT22;24844;52.380;7.018;2023-05-23T08:21:19;14.30;99.90
39099;DHT22;24844;52.380;7.018;2023-05-23T08:23:44;14.40;99.90
39099;DHT22;24844;52.380;7.018;2023-05-23T08:26:10;14.70;99.90
39099;DHT22;24844;52.380;7.018;2023-05-23T08:28:36;15.20;99.90
39099;DHT22;24844;52.380;7.018;2023-05-23T08:31:01;15.10;99.90
39099;DHT22;24844;52.380;7.018;2023-05-23T08:33:27;15.00;99.90
39099;DHT22;24844;52.380;7.018;2023-05-23T08:35:53;15.10;99.90
39099;DHT22;24844;52.380;7.018;2023-05-23T08:38:20;15.10;99.90
39099;DHT22;24844;52.380;7.018;2023-05-23T08:40:49;15.10;99.90
39099;DHT22;24844;52.380;7.018;2023-05-23T08:43:17;15.30;99.90
39099;DHT22;24844;52.380;7.018;2023-05-23T08:45:43;15.40;99.90
39099;DHT22;24844;52.380;7.018;2023-05-23T08:48:12;15.70;99.90
39099;DHT22;24844;52.380;7.018;2023-05-23T08:50:40;15.30;99.90
39099;DHT22;24844;52.380;7.018;2023-05-23T08:53:08;15.40;99.90
39099;DHT22;24844;52.380;7.018;2023-05-23T08:55:36;15.20;99.90
39099;DHT22;24844;52.380;7.018;2023-05-23T08:58:02;15.20;99.90
39099;DHT22;24844;52.380;7.018;2023-05-23T09:00:28;15.30;99.90
39099;DHT22;24844;52.380;7.018;2023-05-23T09:02:54;15.20;99.90
39099;DHT22;24844;52.380;7.018;2023-05-23T09:05:21;15.40;99.90
39099;DHT22;24844;52.380;7.018;2023-05-23T09:07:47;15.60;99.90
39099;DHT22;24844;52.380;7.018;2023-05-23T09:10:14;15.50;99.90
39099;DHT22;24844;52.380;7.018;2023-05-23T09:12:44;15.90;99.90
39099;DHT22;24844;52.380;7.018;2023-05-23T09:15:10;15.60;99.90
39099;DHT22;24844;52.380;7.018;2023-05-23T09:17:36;15.60;99.90
39099;DHT22;24844;52.380;7.018;2023-05-23T09:20:03;15.50;99.90
39099;DHT22;24844;52.380;7.018;2023-05-23T09:22:29;15.90;99.90
39099;DHT22;24844;52.380;7.018;2023-05-23T09:24:56;15.90;99.90
39099;DHT22;24844;52.380;7.018;2023-05-23T09:27:22;15.60;99.90
39099;DHT22;24844;52.380;7.018;2023-05-23T09:29:48;15.60;99.90
39099;DHT22;24844;52.380;7.018;2023-05-23T09:32:16;15.50;99.90
39099;DHT22;24844;52.380;7.018;2023-05-23T09:37:19;15.50;99.90
39099;DHT22;24844;52.380;7.018;2023-05-23T09:39:49;15.70;99.90
39099;DHT22;24844;52.380;7.018;2023-05-23T09:42:21;15.50;99.90
39099;DHT22;24844;52.380;7.018;2023-05-23T09:44:47;15.40;99.90
39099;DHT22;24844;52.380;7.018;2023-05-23T09:47:15;15.60;99.90
39099;DHT22;24844;52.380;7.018;2023-05-23T09:49:42;15.60;99.90
39099;DHT22;24844;52.380;7.018;2023-05-23T09:52:08;16.00;99.90
39099;DHT22;24844;52.380;7.018;2023-05-23T09:54:34;16.10;99.90
39099;DHT22;24844;52.380;7.018;2023-05-23T09:57:01;16.40;99.90
39099;DHT22;24844;52.380;7.018;2023-05-23T09:59:30;17.00;99.90
39099;DHT22;24844;52.380;7.018;2023-05-23T10:02:01;18.10;97.70
39099;DHT22;24844;52.380;7.018;2023-05-23T10:04:33;19.20;95.80
39099;DHT22;24844;52.380;7.018;2023-05-23T10:07:13;20.80;85.70
39099;DHT22;24844;52.380;7.018;2023-05-23T10:09:41;21.50;74.20
39099;DHT22;24844;52.380;7.018;2023-05-23T10:15:03;23.10;67.80
39099;DHT22;24844;52.380;7.018;2023-05-23T10:18:03;22.30;66.40
39099;DHT22;24844;52.380;7.018;2023-05-23T10:20:31;22.20;66.00
39099;DHT22;24844;52.380;7.018;2023-05-23T10:23:00;22.50;65.00
39099;DHT22;24844;52.380;7.018;2023-05-23T10:25:27;23.00;65.60
39099;DHT22;24844;52.380;7.018;2023-05-23T10:27:57;23.20;63.10
39099;DHT22;24844;52.380;7.018;2023-05-23T10:30:26;23.90;60.90
39099;DHT22;24844;52.380;7.018;2023-05-23T10:32:54;24.70;57.30
39099;DHT22;24844;52.380;7.018;2023-05-23T10:35:52;24.30;56.00
39099;DHT22;24844;52.380;7.018;2023-05-23T10:41:09;23.70;54.70
39099;DHT22;24844;52.380;7.018;2023-05-23T10:46:07;21.60;59.80
39099;DHT22;24844;52.380;7.018;2023-05-23T10:48:43;21.30;60.30
39099;DHT22;24844;52.380;7.018;2023-05-23T10:51:12;20.90;62.60
39099;DHT22;24844;52.380;7.018;2023-05-23T10:53:43;20.60;60.90
39099;DHT22;24844;52.380;7.018;2023-05-23T10:56:15;19.50;61.40
39099;DHT22;24844;52.380;7.018;2023-05-23T10:58:43;19.20;64.90
39099;DHT22;24844;52.380;7.018;2023-05-23T11:01:12;19.80;62.90
39099;DHT22;24844;52.380;7.018;2023-05-23T11:03:49;19.70;62.80
39099;DHT22;24844;52.380;7.018;2023-05-23T11:09:02;19.10;68.20
39099;DHT22;24844;52.380;7.018;2023-05-23T11:14:13;19.10;67.60
39099;DHT22;24844;52.380;7.018;2023-05-23T11:16:40;18.70;66.60
39099;DHT22;24844;52.380;7.018;2023-05-23T11:21:59;19.60;64.60
39099;DHT22;24844;52.380;7.018;2023-05-23T11:24:48;19.70;64.40
39099;DHT22;24844;52.380;7.018;2023-05-23T11:27:15;19.50;66.00
39099;DHT22;24844;52.380;7.018;2023-05-23T11:30:00;19.50;66.80
39099;DHT22;24844;52.380;7.018;2023-05-23T11:32:30;19.20;67.90
39099;DHT22;24844;52.380;7.018;2023-05-23T11:35:00;19.60;65.40
39099;DHT22;24844;52.380;7.018;2023-05-23T11:37:26;19.20;65.80
39099;DHT22;24844;52.380;7.018;2023-05-23T11:39:52;19.70;64.00
39099;DHT22;24844;52.380;7.018;2023-05-23T11:42:18;18.90;65.10
39099;DHT22;24844;52.380;7.018;2023-05-23T11:44:43;18.60;67.30
39099;DHT22;24844;52.380;7.018;2023-05-23T11:47:09;18.50;67.90
39099;DHT22;24844;52.380;7.018;2023-05-23T11:49:36;18.80;67.90
39099;DHT22;24844;52.380;7.018;2023-05-23T11:52:05;18.70;67.30
39099;DHT22;24844;52.380;7.018;2023-05-23T11:54:32;18.60;68.90
39099;DHT22;24844;52.380;7.018;2023-05-23T11:56:57;18.40;67.90
39099;DHT22;24844;52.380;7.018;2023-05-23T11:59:24;18.60;69.00
39099;DHT22;24844;52.380;7.018;2023-05-23T12:01:51;18.90;67.50
39099;DHT22;24844;52.380;7.018;2023-05-23T12:04:16;19.20;65.70
39099;DHT22;24844;52.380;7.018;2023-05-23T12:06:46;18.70;65.90
39099;DHT22;24844;52.380;7.018;2023-05-23T12:09:13;18.90;66.60
39099;DHT22;24844;52.380;7.018;2023-05-23T12:11:40;19.30;62.00
39099;DHT22;24844;52.380;7.018;2023-05-23T12:14:06;18.50;65.20
39099;DHT22;24844;52.380;7.018;2023-05-23T12:16:33;18.30;64.60
39099;DHT22;24844;52.380;7.018;2023-05-23T12:19:00;18.40;67.50
39099;DHT22;24844;52.380;7.018;2023-05-23T12:21:26;18.90;68.00
39099;DHT22;24844;52.380;7.018;2023-05-23T12:23:52;19.20;66.80
39099;DHT22;24844;52.380;7.018;2023-05-23T12:26:17;19.70;64.40
39099;DHT22;24844;52.380;7.018;2023-05-23T12:28:44;19.40;64.90
39099;DHT22;24844;52.380;7.018;2023-05-23T12:31:10;19.20;66.60
39099;DHT22;24844;52.380;7.018;2023-05-23T12:33:40;19.00;67.80
39099;DHT22;24844;52.380;7.018;2023-05-23T12:36:08;19.10;65.90
39099;DHT22;24844;52.380;7.018;2023-05-23T12:38:34;18.90;65.00
39099;DHT22;24844;52.380;7.018;2023-05-23T12:41:18;19.10;64.50
39099;DHT22;24844;52.380;7.018;2023-05-23T12:43:51;18.90;66.40
39099;DHT22;24844;52.380;7.018;2023-05-23T12:46:21;18.80;67.20
39099;DHT22;24844;52.380;7.018;2023-05-23T12:48:47;18.60;65.60
39099;DHT22;24844;52.380;7.018;2023-05-23T12:51:13;18.70;65.80
39099;DHT22;24844;52.380;7.018;2023-05-23T12:53:39;18.80;65.60
39099;DHT22;24844;52.380;7.018;2023-05-23T12:56:05;18.70;65.90
39099;DHT22;24844;52.380;7.018;2023-05-23T12:58:31;19.00;65.50
39099;DHT22;24844;52.380;7.018;2023-05-23T13:00:57;18.40;67.60
39099;DHT22;24844;52.380;7.018;2023-05-23T13:03:23;18.50;66.60
39099;DHT22;24844;52.380;7.018;2023-05-23T13:05:49;18.60;66.80
39099;DHT22;24844;52.380;7.018;2023-05-23T13:08:15;18.30;67.80
39099;DHT22;24844;52.380;7.018;2023-05-23T13:10:42;18.60;66.50
39099;DHT22;24844;52.380;7.018;2023-05-23T13:13:07;18.70;65.60
39099;DHT22;24844;52.380;7.018;2023-05-23T13:15:33;18.40;66.70
39099;DHT22;24844;52.380;7.018;2023-05-23T13:17:58;18.20;68.70
39099;DHT22;24844;52.380;7.018;2023-05-23T13:20:24;18.20;68.10
39099;DHT22;24844;52.380;7.018;2023-05-23T13:22:55;18.10;66.90
39099;DHT22;24844;52.380;7.018;2023-05-23T13:25:20;18.20;70.20
39099;DHT22;24844;52.380;7.018;2023-05-23T13:27:46;18.30;70.10
39099;DHT22;24844;52.380;7.018;2023-05-23T13:30:12;18.20;70.50
39099;DHT22;24844;52.380;7.018;2023-05-23T13:32:38;18.40;68.70
39099;DHT22;24844;52.380;7.018;2023-05-23T13:35:04;18.20;64.70
39099;DHT22;24844;52.380;7.018;2023-05-23T13:37:29;18.10;66.00
39099;DHT22;24844;52.380;7.018;2023-05-23T13:39:55;18.40;64.50
39099;DHT22;24844;52.380;7.018;2023-05-23T13:42:20;18.30;65.50
39099;DHT22;24844;52.380;7.018;2023-05-23T13:44:46;18.80;64.00
39099;DHT22;24844;52.380;7.018;2023-05-23T13:47:13;18.50;65.90
39099;DHT22;24844;52.380;7.018;2023-05-23T13:49:40;18.10;66.00
39099;DHT22;24844;52.380;7.018;2023-05-23T13:52:06;18.30;66.80
39099;DHT22;24844;52.380;7.018;2023-05-23T13:54:32;18.00;65.40
39099;DHT22;24844;52.380;7.018;2023-05-23T13:56:58;18.00;65.00
39099;DHT22;24844;52.380;7.018;2023-05-23T13:59:27;18.10;66.00
39099;DHT22;24844;52.380;7.018;2023-05-23T14:01:53;18.50;63.90
39099;DHT22;24844;52.380;7.018;2023-05-23T14:04:19;18.30;64.80
39099;DHT22;24844;52.380;7.018;2023-05-23T14:06:45;18.30;64.70
39099;DHT22;24844;52.380;7.018;2023-05-23T14:09:11;18.50;63.30
39099;DHT22;24844;52.380;7.018;2023-05-23T14:11:37;18.30;63.90
39099;DHT22;24844;52.380;7.018;2023-05-23T14:14:03;17.80;65.60
39099;DHT22;24844;52.380;7.018;2023-05-23T14:16:28;18.30;64.60
39099;DHT22;24844;52.380;7.018;2023-05-23T14:18:54;18.10;65.90
39099;DHT22;24844;52.380;7.018;2023-05-23T14:21:20;17.70;65.20
39099;DHT22;24844;52.380;7.018;2023-05-23T14:23:46;17.70;64.80
39099;DHT22;24844;52.380;7.018;2023-05-23T14:26:11;17.70;64.50
39099;DHT22;24844;52.380;7.018;2023-05-23T14:28:37;17.60;66.80
39099;DHT22;24844;52.380;7.018;2023-05-23T14:31:03;17.60;66.90
39099;DHT22;24844;52.380;7.018;2023-05-23T14:33:28;17.90;65.60
39099;DHT22;24844;52.380;7.018;2023-05-23T14:35:54;18.30;65.70
39099;DHT22;24844;52.380;7.018;2023-05-23T14:38:20;18.20;61.70
39099;DHT22;24844;52.380;7.018;2023-05-23T14:40:45;17.90;63.00
39099;DHT22;24844;52.380;7.018;2023-05-23T14:43:13;17.60;64.00
39099;DHT22;24844;52.380;7.018;2023-05-23T14:45:39;17.40;65.40
39099;DHT22;24844;52.380;7.018;2023-05-23T14:48:04;17.40;65.90
39099;DHT22;24844;52.380;7.018;2023-05-23T14:50:30;17.40;67.80
39099;DHT22;24844;52.380;7.018;2023-05-23T14:52:56;17.60;66.40
39099;DHT22;24844;52.380;7.018;2023-05-23T14:55:21;17.60;65.80
39099;DHT22;24844;52.380;7.018;2023-05-23T14:57:48;18.10;64.80
39099;DHT22;24844;52.380;7.018;2023-05-23T15:00:14;18.20;62.90
39099;DHT22;24844;52.380;7.018;2023-05-23T15:02:39;18.10;62.90
39099;DHT22;24844;52.380;7.018;2023-05-23T15:05:05;17.80;63.30
39099;DHT22;24844;52.380;7.018;2023-05-23T15:07:31;17.80;64.00
39099;DHT22;24844;52.380;7.018;2023-05-23T15:09:57;18.20;62.70
39099;DHT22;24844;52.380;7.018;2023-05-23T15:12:23;18.40;62.60
39099;DHT22;24844;52.380;7.018;2023-05-23T15:14:49;18.30;63.10
39099;DHT22;24844;52.380;7.018;2023-05-23T15:17:15;18.20;63.30
39099;DHT22;24844;52.380;7.018;2023-05-23T15:19:45;18.10;63.10
39099;DHT22;24844;52.380;7.018;2023-05-23T15:22:11;18.00;65.00
39099;DHT22;24844;52.380;7.018;2023-05-23T15:24:36;18.00;64.10
39099;DHT22;24844;52.380;7.018;2023-05-23T15:27:02;17.90;64.30
39099;DHT22;24844;52.380;7.018;2023-05-23T15:29:28;18.20;62.70
39099;DHT22;24844;52.380;7.018;2023-05-23T15:31:53;17.80;63.30
39099;DHT22;24844;52.380;7.018;2023-05-23T15:34:19;17.60;64.20
39099;DHT22;24844;52.380;7.018;2023-05-23T15:36:45;17.40;64.60
39099;DHT22;24844;52.380;7.018;2023-05-23T15:39:11;17.30;64.60
39099;DHT22;24844;52.380;7.018;2023-05-23T15:41:37;17.30;63.60
39099;DHT22;24844;52.380;7.018;2023-05-23T15:44:03;17.00;65.90
39099;DHT22;24844;52.380;7.018;2023-05-23T15:46:28;16.50;67.00
39099;DHT22;24844;52.380;7.018;2023-05-23T15:48:54;16.50;67.40
39099;DHT22;24844;52.380;7.018;2023-05-23T15:51:24;16.60;67.50